createdAt,value
2019-02-18T00:00:53.743Z,96107.1
2019-02-18T00:01:56.186Z,96108
2019-02-18T00:02:58.648Z,96105.8
2019-02-18T00:04:01.272Z,96098.8
2019-02-18T00:05:03.705Z,96099.8
2019-02-18T00:06:05.865Z,96103.6
2019-02-18T00:08:13.287Z,96098.8
2019-02-18T00:09:15.444Z,96094.4
2019-02-18T00:10:17.873Z,96093
2019-02-18T00:11:20.313Z,96097.1
2019-02-18T00:12:22.479Z,96095.3
2019-02-18T00:13:24.900Z,96095.1
2019-02-18T00:14:27.055Z,96097.9
2019-02-18T00:15:28.924Z,96096.4
2019-02-18T00:16:31.077Z,96099.8
2019-02-18T00:17:33.500Z,96098.4
2019-02-18T00:18:35.669Z,96094.5
2019-02-18T00:19:37.810Z,96101.1
2019-02-18T00:20:39.969Z,96099.5
2019-02-18T00:21:42.389Z,96099.6
2019-02-18T00:22:44.547Z,96095.7
2019-02-18T00:23:47.041Z,96097.9
2019-02-18T00:24:48.887Z,96100.7
2019-02-18T00:25:51.319Z,96096.9
2019-02-18T00:26:53.752Z,96099.7
2019-02-18T00:27:55.919Z,96097.1
2019-02-18T00:28:58.387Z,96102.8
2019-02-18T00:30:00.822Z,96106.3
2019-02-18T00:31:03.286Z,96101.1
2019-02-18T00:32:05.693Z,96098.6
2019-02-18T00:33:08.122Z,96098.4
2019-02-18T00:34:10.576Z,96096.3
2019-02-18T00:35:13.063Z,96092.5
2019-02-18T00:36:15.231Z,96094.8
2019-02-18T00:38:22.362Z,96094.1
2019-02-18T00:39:23.960Z,96092.6
2019-02-18T00:40:26.093Z,96095.7
2019-02-18T00:41:28.251Z,96091.9
2019-02-18T00:42:30.416Z,96092.3
2019-02-18T00:43:32.843Z,96092.6
2019-02-18T00:44:34.777Z,96084
2019-02-18T00:45:37.206Z,96088.1
2019-02-18T00:46:39.646Z,96087.2
2019-02-18T00:47:42.131Z,96086.4
2019-02-18T00:48:44.541Z,96091.1
2019-02-18T00:49:46.712Z,96089.4
2019-02-18T00:50:49.146Z,96088.1
2019-02-18T00:51:51.284Z,96087.8
2019-02-18T00:52:53.503Z,96086.8
2019-02-18T00:53:55.665Z,96085.3
2019-02-18T00:54:58.091Z,96087.1
2019-02-18T00:55:59.994Z,96087.6
2019-02-18T00:57:02.418Z,96087.8
2019-02-18T00:58:04.835Z,96088.7
2019-02-18T00:59:06.468Z,96088.4
2019-02-18T01:00:08.628Z,96084.6
2019-02-18T01:01:10.494Z,96089.3
2019-02-18T01:02:12.932Z,96091.5
2019-02-18T01:03:15.372Z,96090.2
2019-02-18T01:04:17.533Z,96088.5
2019-02-18T01:05:19.426Z,96092.4
2019-02-18T01:06:21.292Z,96087.9
2019-02-18T01:07:23.731Z,96092.2
2019-02-18T01:08:31.248Z,96087.9
2019-02-18T01:09:33.673Z,96088
2019-02-18T01:10:36.109Z,96091.3
2019-02-18T01:11:37.718Z,96092
2019-02-18T01:12:39.896Z,96087
2019-02-18T01:13:42.334Z,96092.5
2019-02-18T01:14:44.767Z,96088.9
2019-02-18T01:15:47.201Z,96088.3
2019-02-18T01:16:49.333Z,96089.1
2019-02-18T01:17:51.491Z,96085.3
2019-02-18T01:18:53.915Z,96091.9
2019-02-18T01:19:56.066Z,96084.9
2019-02-18T01:20:58.494Z,96084.6
2019-02-18T01:22:00.921Z,96084.1
2019-02-18T01:23:03.052Z,96085.9
2019-02-18T01:24:04.914Z,96081.9
2019-02-18T01:25:07.034Z,96075.9
2019-02-18T01:26:09.467Z,96079.2
2019-02-18T01:27:11.631Z,96077.4
2019-02-18T01:28:14.052Z,96075.2
2019-02-18T01:29:16.185Z,96072.8
2019-02-18T01:30:18.634Z,96075.5
2019-02-18T01:31:21.084Z,96069.8
2019-02-18T01:32:23.235Z,96070.1
2019-02-18T01:33:25.662Z,96068.1
2019-02-18T01:34:28.090Z,96066.7
2019-02-18T01:35:30.231Z,96070
2019-02-18T01:36:32.391Z,96066.7
2019-02-18T01:37:43.019Z,96065.9
2019-02-18T01:38:40.964Z,96065.9
2019-02-18T01:39:43.399Z,96068.7
2019-02-18T01:40:45.835Z,96069.7
2019-02-18T01:41:47.691Z,96066.2
2019-02-18T01:42:49.871Z,96065.6
2019-02-18T01:43:52.309Z,96067.7
2019-02-18T01:44:54.734Z,96064
2019-02-18T01:45:56.893Z,96065.6
2019-02-18T01:46:59.065Z,96064.7
2019-02-18T01:48:01.505Z,96065.7
2019-02-18T01:49:03.402Z,96058.1
2019-02-18T01:50:05.826Z,96060
2019-02-18T01:51:07.982Z,96057.7
2019-02-18T01:52:10.142Z,96059.3
2019-02-18T01:53:12.574Z,96055.1
2019-02-18T01:54:14.463Z,96054.7
2019-02-18T01:55:16.614Z,96054.1
2019-02-18T01:56:18.764Z,96052.7
2019-02-18T01:57:20.646Z,96052
2019-02-18T01:58:22.792Z,96055.3
2019-02-18T01:59:24.646Z,96048.5
2019-02-18T02:00:27.074Z,96048.8
2019-02-18T02:01:29.236Z,96048
2019-02-18T02:02:31.663Z,96047.2
2019-02-18T02:03:33.814Z,96049.4
2019-02-18T02:04:36.254Z,96045.7
2019-02-18T02:05:38.674Z,96046.5
2019-02-18T02:06:40.838Z,96046.1
2019-02-18T02:07:42.999Z,96044.2
2019-02-18T02:08:45.144Z,96047.4
2019-02-18T02:09:47.584Z,96042
2019-02-18T02:10:49.753Z,96048.5
2019-02-18T02:11:51.905Z,96042.7
2019-02-18T02:12:54.052Z,96039.9
2019-02-18T02:13:56.503Z,96035.2
2019-02-18T02:14:58.666Z,96034.6
2019-02-18T02:16:01.107Z,96034.7
2019-02-18T02:17:03.532Z,96032.3
2019-02-18T02:18:05.965Z,96033.7
2019-02-18T02:19:08.101Z,96033.3
2019-02-18T02:20:10.534Z,96032.1
2019-02-18T02:21:12.683Z,96031.2
2019-02-18T02:22:15.124Z,96032.1
2019-02-18T02:23:17.264Z,96032.1
2019-02-18T02:24:19.427Z,96028.9
2019-02-18T02:25:21.845Z,96031.7
2019-02-18T02:26:23.984Z,96030.3
2019-02-18T02:27:26.204Z,96025.6
2019-02-18T02:28:28.373Z,96024.4
2019-02-18T02:29:30.586Z,96021.5
2019-02-18T02:30:33.004Z,96023.9
2019-02-18T02:31:35.436Z,96024.9
2019-02-18T02:32:37.615Z,96019.9
2019-02-18T02:33:39.758Z,96022.6
2019-02-18T02:34:41.930Z,96018.5
2019-02-18T02:35:44.082Z,96015.8
2019-02-18T02:36:46.508Z,96017.5
2019-02-18T02:37:48.674Z,96018.8
2019-02-18T02:38:50.853Z,96015.9
2019-02-18T02:39:53.019Z,96013.1
2019-02-18T02:40:55.445Z,96011.8
2019-02-18T02:41:57.615Z,96010.2
2019-02-18T02:42:59.494Z,96010.8
2019-02-18T02:44:01.922Z,96011.9
2019-02-18T02:45:04.384Z,96007.7
2019-02-18T02:46:06.812Z,96011.8
2019-02-18T02:47:08.695Z,96007.4
2019-02-18T02:48:11.125Z,96005.8
2019-02-18T02:49:13.582Z,96005.3
2019-02-18T02:50:15.755Z,96010
2019-02-18T02:51:17.928Z,96005.4
2019-02-18T02:52:20.350Z,96008.9
2019-02-18T02:53:22.512Z,96009.4
2019-02-18T02:54:24.746Z,96008.3
2019-02-18T02:55:26.920Z,96007.9
2019-02-18T02:56:29.393Z,96011.6
2019-02-18T02:57:31.543Z,96009.4
2019-02-18T02:58:33.993Z,96008.6
2019-02-18T02:59:36.489Z,96010.3
2019-02-18T03:00:38.375Z,96004.6
2019-02-18T03:01:40.813Z,96005.4
2019-02-18T03:02:43.265Z,96004.3
2019-02-18T03:03:45.697Z,95998.6
2019-02-18T03:04:48.131Z,96000.5
2019-02-18T03:05:49.763Z,96002.7
2019-02-18T03:06:51.914Z,95999.1
2019-02-18T03:07:54.344Z,96000.3
2019-02-18T03:08:56.777Z,96003.1
2019-02-18T03:09:59.212Z,96003.1
2019-02-18T03:11:01.642Z,95999.6
2019-02-18T03:12:03.784Z,96000.7
2019-02-18T03:13:05.662Z,96001.9
2019-02-18T03:14:08.105Z,95998.9
2019-02-18T03:15:09.965Z,95997.8
2019-02-18T03:16:12.214Z,96003
2019-02-18T03:17:14.361Z,96001.3
2019-02-18T03:18:16.791Z,95999.4
2019-02-18T03:19:19.226Z,96001
2019-02-18T03:20:21.374Z,96004
2019-02-18T03:21:23.851Z,96004.5
2019-02-18T03:22:25.987Z,96000.7
2019-02-18T03:23:28.415Z,96000.7
2019-02-18T03:24:30.842Z,96001.8
2019-02-18T03:25:33.010Z,96002.4
2019-02-18T03:26:35.178Z,96006.3
2019-02-18T03:27:37.346Z,96009.2
2019-02-18T03:28:39.772Z,96004.5
2019-02-18T03:29:42.218Z,96008.6
2019-02-18T03:30:44.681Z,96011.5
2019-02-18T03:31:46.826Z,96009.8
2019-02-18T03:32:49.365Z,96010
2019-02-18T03:33:51.262Z,96006.4
2019-02-18T03:34:53.391Z,96010.6
2019-02-18T03:35:55.823Z,96012.1
2019-02-18T03:36:58.260Z,96011.3
2019-02-18T03:38:00.421Z,96010.6
2019-02-18T03:39:02.579Z,96012.2
2019-02-18T03:40:04.997Z,96015.1
2019-02-18T03:41:07.149Z,96018.7
2019-02-18T03:42:09.562Z,96015.3
2019-02-18T03:43:11.992Z,96015.4
2019-02-18T03:44:14.439Z,96013.7
2019-02-18T03:45:16.907Z,96017.7
2019-02-18T03:46:18.793Z,96013.8
2019-02-18T03:47:21.214Z,96017.1
2019-02-18T03:48:23.364Z,96016.7
2019-02-18T03:49:25.518Z,96018.5
2019-02-18T03:50:27.682Z,96019.6
2019-02-18T03:51:30.111Z,96016.7
2019-02-18T03:52:32.277Z,96015
2019-02-18T03:53:34.707Z,96015.1
2019-02-18T03:54:37.130Z,96016.9
2019-02-18T03:55:39.377Z,96016.9
2019-02-18T03:56:41.802Z,96019
2019-02-18T03:57:43.500Z,96020
2019-02-18T03:58:45.936Z,96022.3
2019-02-18T03:59:48.096Z,96023
2019-02-18T04:00:50.528Z,96024.5
2019-02-18T04:01:52.980Z,96023.4
2019-02-18T04:02:55.249Z,96024.8
2019-02-18T04:03:57.120Z,96022.9
2019-02-18T04:04:59.545Z,96026.8
2019-02-18T04:06:01.989Z,96027.2
2019-02-18T04:07:03.863Z,96024.2
2019-02-18T04:08:06.284Z,96020.3
2019-02-18T04:09:08.704Z,96022
2019-02-18T04:10:10.865Z,96021.1
2019-02-18T04:11:13.293Z,96019.4
2019-02-18T04:12:15.720Z,96019.3
2019-02-18T04:13:18.154Z,96014.2
2019-02-18T04:14:20.334Z,96011.1
2019-02-18T04:15:22.810Z,96006.2
2019-02-18T04:16:24.971Z,96008.7
2019-02-18T04:17:27.396Z,96008.3
2019-02-18T04:18:29.865Z,96002.5
2019-02-18T04:19:32.291Z,96004.2
2019-02-18T04:20:34.722Z,96013.1
2019-02-18T04:21:37.147Z,96006.5
2019-02-18T04:22:39.284Z,96010.5
2019-02-18T04:23:41.465Z,96005.7
2019-02-18T04:24:43.621Z,96006.9
2019-02-18T04:25:45.785Z,96008.8
2019-02-18T04:26:47.951Z,96006.5
2019-02-18T04:27:50.128Z,96006.9
2019-02-18T04:28:52.288Z,96004.6
2019-02-18T04:29:54.715Z,96005.9
2019-02-18T04:30:56.864Z,96000.5
2019-02-18T04:31:59.033Z,96003.2
2019-02-18T04:33:01.468Z,96002.4
2019-02-18T04:34:03.900Z,96003.4
2019-02-18T04:35:06.065Z,95999.8
2019-02-18T04:36:08.482Z,96000.7
2019-02-18T04:37:10.638Z,95998.3
2019-02-18T04:38:12.767Z,95998.1
2019-02-18T04:39:14.909Z,95997.5
2019-02-18T04:40:17.062Z,95997.8
2019-02-18T04:41:19.213Z,95995.7
2019-02-18T04:42:21.718Z,95996.3
2019-02-18T04:43:24.463Z,95991.1
2019-02-18T04:44:26.936Z,95989.3
2019-02-18T04:45:29.398Z,95991.7
2019-02-18T04:46:31.548Z,95988.3
2019-02-18T04:47:33.703Z,95988.5
2019-02-18T04:48:35.845Z,95990.5
2019-02-18T04:49:38.296Z,95989.4
2019-02-18T04:50:40.750Z,95983.4
2019-02-18T04:51:43.185Z,95985.8
2019-02-18T04:52:45.624Z,95982
2019-02-18T04:53:48.054Z,95985.1
2019-02-18T04:54:50.501Z,95986
2019-02-18T04:55:52.652Z,95984.5
2019-02-18T04:56:54.577Z,95983.3
2019-02-18T04:57:57.034Z,95982.6
2019-02-18T04:58:59.312Z,95983.3
2019-02-18T05:00:01.477Z,95985.7
2019-02-18T05:01:04.569Z,95983.8
2019-02-18T05:02:07.003Z,95984.3
2019-02-18T05:03:09.140Z,95982.2
2019-02-18T05:04:13.830Z,95979.5
2019-02-18T05:05:17.722Z,95977.5
2019-02-18T05:06:20.142Z,95978.8
2019-02-18T05:07:22.283Z,95977.4
2019-02-18T05:08:24.705Z,95977.7
2019-02-18T05:09:27.142Z,95980.3
2019-02-18T05:10:29.299Z,95979.2
2019-02-18T05:11:31.467Z,95977.8
2019-02-18T05:12:33.624Z,95982.3
2019-02-18T05:13:35.745Z,95980.8
2019-02-18T05:14:38.183Z,95983.7
2019-02-18T05:15:42.053Z,95984
2019-02-18T05:16:44.480Z,95980.7
2019-02-18T05:17:46.373Z,95981.6
2019-02-18T05:18:48.806Z,95984.7
2019-02-18T05:19:51.239Z,95979
2019-02-18T05:20:54.011Z,95980.8
2019-02-18T05:21:56.583Z,95980.4
2019-02-18T05:22:58.770Z,95983.4
2019-02-18T05:24:01.252Z,95982.5
2019-02-18T05:25:03.690Z,95983.3
2019-02-18T05:26:05.886Z,95983.6
2019-02-18T05:27:07.777Z,95985
2019-02-18T05:28:10.204Z,95984.6
2019-02-18T05:29:12.380Z,95983.5
2019-02-18T05:30:14.809Z,95983
2019-02-18T05:31:17.255Z,95983.1
2019-02-18T05:32:19.694Z,95986.8
2019-02-18T05:33:21.310Z,95986.8
2019-02-18T05:34:23.760Z,95983.6
2019-02-18T05:35:26.223Z,95986.7
2019-02-18T05:36:28.725Z,95986.1
2019-02-18T05:37:31.155Z,95987.4
2019-02-18T05:38:33.581Z,95984.7
2019-02-18T05:39:35.741Z,95987.1
2019-02-18T05:40:38.067Z,95984.9
2019-02-18T05:41:40.484Z,95984.4
2019-02-18T05:42:42.363Z,95985.5
2019-02-18T05:43:44.786Z,95988.4
2019-02-18T05:44:47.232Z,95988.8
2019-02-18T05:45:49.174Z,95988.9
2019-02-18T05:46:51.614Z,95991.5
2019-02-18T05:47:54.055Z,95987.1
2019-02-18T05:48:56.487Z,95988.4
2019-02-18T05:49:58.653Z,95989.7
2019-02-18T05:51:01.096Z,95989.4
2019-02-18T05:52:03.254Z,95985.3
2019-02-18T05:53:05.673Z,95990.5
2019-02-18T05:54:08.118Z,95989
2019-02-18T05:55:10.555Z,95990.2
2019-02-18T05:56:12.457Z,95989.4
2019-02-18T05:57:14.893Z,95988.7
2019-02-18T05:58:16.778Z,95986.8
2019-02-18T05:59:18.944Z,95991.5
2019-02-18T06:00:21.477Z,95989.7
2019-02-18T06:01:22.806Z,95987
2019-02-18T06:02:25.243Z,95983.9
2019-02-18T06:03:27.403Z,95986.5
2019-02-18T06:04:29.307Z,95986.9
2019-02-18T06:05:31.767Z,95987.3
2019-02-18T06:06:34.183Z,95987.5
2019-02-18T06:07:36.632Z,95983.8
2019-02-18T06:08:38.501Z,95983.7
2019-02-18T06:09:40.926Z,95982.6
2019-02-18T06:10:43.383Z,95987.3
2019-02-18T06:11:45.825Z,95982.6
2019-02-18T06:12:48.246Z,95988.7
2019-02-18T06:13:50.731Z,95990.7
2019-02-18T06:14:52.607Z,95992.4
2019-02-18T06:15:55.028Z,95991.4
2019-02-18T06:16:57.458Z,95993.5
2019-02-18T06:17:59.890Z,95995.6
2019-02-18T06:19:02.065Z,95996.9
2019-02-18T06:20:04.491Z,95994.6
2019-02-18T06:21:06.944Z,95994.1
2019-02-18T06:22:09.075Z,95994.8
2019-02-18T06:23:10.674Z,95993.3
2019-02-18T06:24:13.118Z,95997.2
2019-02-18T06:25:15.322Z,95989.3
2019-02-18T06:26:17.763Z,95992.2
2019-02-18T06:27:20.213Z,95992.4
2019-02-18T06:28:22.360Z,95993.9
2019-02-18T06:29:24.517Z,95999
2019-02-18T06:30:26.942Z,95997.8
2019-02-18T06:31:29.105Z,95998.7
2019-02-18T06:32:31.316Z,95999.1
2019-02-18T06:33:33.782Z,96000.7
2019-02-18T06:34:36.233Z,96002.8
2019-02-18T06:35:38.666Z,96000.5
2019-02-18T06:36:41.085Z,96006.7
2019-02-18T06:37:43.520Z,96008.3
2019-02-18T06:38:45.953Z,96012.6
2019-02-18T06:39:48.112Z,96009.3
2019-02-18T06:40:50.262Z,96009.8
2019-02-18T06:41:52.386Z,96012.6
2019-02-18T06:42:54.262Z,96013.2
2019-02-18T06:43:56.452Z,96012.8
2019-02-18T06:44:58.875Z,96012.8
2019-02-18T06:46:01.328Z,96013.4
2019-02-18T06:47:03.479Z,96018
2019-02-18T06:48:05.628Z,96017
2019-02-18T06:49:08.062Z,96018
2019-02-18T06:50:10.243Z,96015.7
2019-02-18T06:51:12.135Z,96020.7
2019-02-18T06:52:14.564Z,96020.4
2019-02-18T06:53:16.980Z,96020.9
2019-02-18T06:54:19.125Z,96021.2
2019-02-18T06:55:21.265Z,96023.7
2019-02-18T06:56:23.415Z,96025
2019-02-18T06:57:25.863Z,96023.8
2019-02-18T06:58:27.507Z,96026
2019-02-18T06:59:29.633Z,96026.3
2019-02-18T07:00:32.055Z,96025.2
2019-02-18T07:01:33.972Z,96025.5
2019-02-18T07:02:36.146Z,96030.4
2019-02-18T07:03:38.305Z,96027.3
2019-02-18T07:04:40.740Z,96029.8
2019-02-18T07:05:43.443Z,96030.3
2019-02-18T07:06:45.871Z,96032
2019-02-18T07:07:48.016Z,96027.7
2019-02-18T07:08:50.195Z,96028.5
2019-02-18T07:09:53.245Z,96029.8
2019-02-18T07:10:55.683Z,96025.2
2019-02-18T07:11:58.109Z,96027.8
2019-02-18T07:13:00.556Z,96028.9
2019-02-18T07:14:02.985Z,96029.4
2019-02-18T07:15:05.416Z,96030.9
2019-02-18T07:16:07.301Z,96029.6
2019-02-18T07:18:14.132Z,96030.8
2019-02-18T07:19:16.285Z,96031.7
2019-02-18T07:20:18.428Z,96033.5
2019-02-18T07:21:20.864Z,96030.7
2019-02-18T07:22:23.305Z,96029.6
2019-02-18T07:23:25.463Z,96025.3
2019-02-18T07:24:27.905Z,96029.1
2019-02-18T07:25:30.321Z,96029.1
2019-02-18T07:26:32.483Z,96025.5
2019-02-18T07:27:34.619Z,96026.7
2019-02-18T07:28:36.514Z,96025.1
2019-02-18T07:29:38.679Z,96029.9
2019-02-18T07:30:40.825Z,96022.3
2019-02-18T07:31:42.690Z,96021.3
2019-02-18T07:32:44.565Z,96026.1
2019-02-18T07:33:46.696Z,96023.7
2019-02-18T07:34:48.859Z,96019.3
2019-02-18T07:35:51.285Z,96015.9
2019-02-18T07:36:53.708Z,96015.4
2019-02-18T07:37:56.182Z,96019.3
2019-02-18T07:38:58.622Z,96015.6
2019-02-18T07:41:05.762Z,96012.5
2019-02-18T07:42:07.892Z,96012.8
2019-02-18T07:43:10.049Z,96013.3
2019-02-18T07:44:12.212Z,96010.8
2019-02-18T07:45:14.084Z,96011.4
2019-02-18T07:46:16.570Z,96003.8
2019-02-18T07:47:18.737Z,96006.6
2019-02-18T07:48:20.943Z,96005.1
2019-02-18T07:49:23.116Z,96001.8
2019-02-18T07:50:25.548Z,95998.8
2019-02-18T07:51:27.737Z,95998.7
2019-02-18T07:52:29.934Z,95994
2019-02-18T07:53:32.351Z,95989.2
2019-02-18T07:54:34.819Z,95993.9
2019-02-18T07:55:37.313Z,95993.4
2019-02-18T07:56:39.456Z,95996.8
2019-02-18T07:57:41.611Z,95993.2
2019-02-18T07:58:43.764Z,95988.9
2019-02-18T07:59:46.202Z,95990.1
2019-02-18T08:00:48.636Z,95991.3
2019-02-18T08:01:51.060Z,95993
2019-02-18T08:02:52.933Z,95985.4
2019-02-18T08:03:55.363Z,95993.1
2019-02-18T08:04:57.571Z,95994.7
2019-02-18T08:05:59.993Z,95988.4
2019-02-18T08:07:02.428Z,95989.8
2019-02-18T08:08:04.870Z,95991.1
2019-02-18T08:09:07.301Z,95985.4
2019-02-18T08:11:14.699Z,95985.9
2019-02-18T08:12:17.124Z,95986
2019-02-18T08:13:19.272Z,95985.1
2019-02-18T08:14:21.409Z,95986.7
2019-02-18T08:15:23.832Z,95981.9
2019-02-18T08:16:25.710Z,95983.5
2019-02-18T08:17:28.135Z,95984.1
2019-02-18T08:18:30.592Z,95981.5
2019-02-18T08:19:33.018Z,95983.2
2019-02-18T08:20:35.439Z,95982.3
2019-02-18T08:21:37.876Z,95977.8
2019-02-18T08:22:40.003Z,95980.2
2019-02-18T08:23:42.428Z,95982.4
2019-02-18T08:24:44.867Z,95980.5
2019-02-18T08:25:47.033Z,95983
2019-02-18T08:26:49.458Z,95981.7
2019-02-18T08:27:51.599Z,95984.2
2019-02-18T08:28:54.022Z,95981
2019-02-18T08:29:56.449Z,95984.1
2019-02-18T08:30:58.874Z,95981.2
2019-02-18T08:32:01.004Z,95981.7
2019-02-18T08:33:03.439Z,95980.8
2019-02-18T08:34:05.620Z,95976.4
2019-02-18T08:35:07.797Z,95974.9
2019-02-18T08:36:09.695Z,95977
2019-02-18T08:37:11.886Z,95975.9
2019-02-18T08:38:14.023Z,95976.8
2019-02-18T08:39:16.186Z,95978.4
2019-02-18T08:41:23.335Z,95976.5
2019-02-18T08:42:25.766Z,95980.1
2019-02-18T08:43:28.217Z,95977.8
2019-02-18T08:44:30.684Z,95979.6
2019-02-18T08:45:33.432Z,95980.5
2019-02-18T08:46:35.304Z,95982.1
2019-02-18T08:47:37.485Z,95978.2
2019-02-18T08:48:39.643Z,95981.5
2019-02-18T08:49:42.083Z,95979.5
2019-02-18T08:50:44.527Z,95982.2
2019-02-18T08:51:46.686Z,95978.4
2019-02-18T08:52:49.110Z,95980.8
2019-02-18T08:53:51.530Z,95981.3
2019-02-18T08:55:58.950Z,95981.6
2019-02-18T08:57:01.146Z,95980.9
2019-02-18T08:58:03.300Z,95975.2
2019-02-18T08:59:05.453Z,95981.7
2019-02-18T09:00:07.893Z,95977.4
2019-02-18T09:01:10.035Z,95976.1
2019-02-18T09:02:11.915Z,95976.3
2019-02-18T09:03:14.093Z,95973.8
2019-02-18T09:04:15.998Z,95972.7
2019-02-18T09:05:18.971Z,95973.4
2019-02-18T09:06:21.645Z,95975
2019-02-18T09:07:23.540Z,95974.6
2019-02-18T09:08:25.436Z,95972.2
2019-02-18T09:09:27.880Z,95969
2019-02-18T09:11:35.286Z,95977.9
2019-02-18T09:12:37.706Z,95973.6
2019-02-18T09:13:39.878Z,95973.9
2019-02-18T09:14:41.756Z,95971.4
2019-02-18T09:15:44.176Z,95967
2019-02-18T09:16:46.354Z,95967.9
2019-02-18T09:17:48.787Z,95963.6
2019-02-18T09:18:51.206Z,95963.4
2019-02-18T09:19:53.625Z,95967.8
2019-02-18T09:20:55.779Z,95969.7
2019-02-18T09:21:58.194Z,95971
2019-02-18T09:23:00.633Z,95971.2
2019-02-18T09:24:01.971Z,95969.1
2019-02-18T09:25:04.135Z,95970
2019-02-18T09:26:06.572Z,95969.9
2019-02-18T09:27:09.008Z,95964.4
2019-02-18T09:28:11.439Z,95966.4
2019-02-18T09:29:13.585Z,95967.6
2019-02-18T09:30:16.008Z,95967.1
2019-02-18T09:31:18.154Z,95966.2
2019-02-18T09:32:20.585Z,95963.2
2019-02-18T09:33:22.723Z,95968.5
2019-02-18T09:34:25.217Z,95964.8
2019-02-18T09:35:27.362Z,95966.1
2019-02-18T09:36:29.525Z,95968.1
2019-02-18T09:37:31.954Z,95966.5
2019-02-18T09:38:33.568Z,95963.7
2019-02-18T09:39:35.731Z,95966.4
2019-02-18T09:41:42.613Z,95967.8
2019-02-18T09:42:44.470Z,95966.5
2019-02-18T09:43:46.621Z,95960.5
2019-02-18T09:44:48.780Z,95966.5
2019-02-18T09:45:50.675Z,95964.2
2019-02-18T09:46:53.100Z,95964
2019-02-18T09:47:55.729Z,95965.2
2019-02-18T09:48:57.894Z,95966.8
2019-02-18T09:49:59.772Z,95965.8
2019-02-18T09:51:02.311Z,95966.4
2019-02-18T09:52:04.488Z,95965.4
2019-02-18T09:53:06.678Z,95960.5
2019-02-18T09:54:08.849Z,95966.4
2019-02-18T09:55:11.033Z,95959.9
2019-02-18T09:56:13.472Z,95960.3
2019-02-18T09:57:16.071Z,95955.6
2019-02-18T09:58:18.234Z,95959.5
2019-02-18T09:59:20.370Z,95956.5
2019-02-18T10:00:22.840Z,95962.7
2019-02-18T10:01:25.256Z,95958.1
2019-02-18T10:02:27.136Z,95955.8
2019-02-18T10:04:34.564Z,95959.9
2019-02-18T10:05:36.995Z,95959
2019-02-18T10:06:39.413Z,95960.1
2019-02-18T10:07:41.564Z,95956.5
2019-02-18T10:08:43.984Z,95957.6
2019-02-18T10:09:46.434Z,95958.2
2019-02-18T10:11:53.268Z,95958.3
2019-02-18T10:12:55.697Z,95959.8
2019-02-18T10:13:58.151Z,95961.6
2019-02-18T10:15:00.337Z,95960.3
2019-02-18T10:16:02.190Z,95960.8
2019-02-18T10:17:04.620Z,95962.1
2019-02-18T10:18:06.772Z,95967.3
2019-02-18T10:19:09.191Z,95966.1
2019-02-18T10:20:11.084Z,95967.4
2019-02-18T10:21:13.241Z,95964.5
2019-02-18T10:22:15.671Z,95962.8
2019-02-18T10:23:18.116Z,95965.2
2019-02-18T10:24:20.533Z,95962.9
2019-02-18T10:25:22.694Z,95961
2019-02-18T10:26:25.144Z,95963.1
2019-02-18T10:27:27.581Z,95962.3
2019-02-18T10:28:29.744Z,95963.3
2019-02-18T10:29:31.634Z,95959.6
2019-02-18T10:30:34.061Z,95958.9
2019-02-18T10:31:35.683Z,95959.5
2019-02-18T10:32:37.846Z,95955.5
2019-02-18T10:33:40.274Z,95955
2019-02-18T10:34:42.424Z,95957.9
2019-02-18T10:35:44.024Z,95955.6
2019-02-18T10:36:46.463Z,95956.8
2019-02-18T10:38:53.082Z,95953.1
2019-02-18T10:39:55.270Z,95954.6
2019-02-18T10:42:02.673Z,95946.7
2019-02-18T10:43:04.273Z,95943.7
2019-02-18T10:44:06.181Z,95943.1
2019-02-18T10:45:08.315Z,95942.9
2019-02-18T10:46:10.177Z,95940.9
2019-02-18T10:47:12.347Z,95936
2019-02-18T10:48:15.314Z,95932.7
2019-02-18T10:50:23.093Z,95930.7
2019-02-18T10:51:25.251Z,95928.2
2019-02-18T10:52:27.484Z,95924.1
2019-02-18T10:53:29.681Z,95925.5
2019-02-18T10:54:32.224Z,95926.7
2019-02-18T10:55:34.672Z,95922.6
2019-02-18T10:56:36.537Z,95921.7
2019-02-18T10:57:38.399Z,95922
2019-02-18T10:58:40.822Z,95916.1
2019-02-18T10:59:44.219Z,95915.4
2019-02-18T11:00:46.580Z,95910.7
2019-02-18T11:01:48.741Z,95908.5
2019-02-18T11:02:50.909Z,95906.6
2019-02-18T11:03:53.085Z,95902.7
2019-02-18T11:04:54.966Z,95905.2
2019-02-18T11:05:57.402Z,95901.1
2019-02-18T11:06:59.834Z,95898
2019-02-18T11:08:02.279Z,95891.5
2019-02-18T11:09:04.186Z,95889.6
2019-02-18T11:10:06.628Z,95888.1
2019-02-18T11:12:14.034Z,95882.9
2019-02-18T11:13:16.465Z,95876.4
2019-02-18T11:14:18.635Z,95883.7
2019-02-18T11:15:20.962Z,95879
2019-02-18T11:16:24.002Z,95877.7
2019-02-18T11:17:27.024Z,95875
2019-02-18T11:18:29.460Z,95878.5
2019-02-18T11:19:31.898Z,95873.9
2019-02-18T11:20:34.324Z,95875
2019-02-18T11:21:35.971Z,95874.5
2019-02-18T11:22:38.403Z,95872
2019-02-18T11:23:40.275Z,95867.9
2019-02-18T11:24:42.437Z,95869.8
2019-02-18T11:25:44.871Z,95866.3
2019-02-18T11:26:47.302Z,95867
2019-02-18T11:27:50.363Z,95867.4
2019-02-18T11:28:53.167Z,95866.8
2019-02-18T11:29:55.334Z,95865.6
2019-02-18T11:30:57.822Z,95865.6
2019-02-18T11:31:59.685Z,95858.8
2019-02-18T11:33:02.119Z,95861.5
2019-02-18T11:34:04.563Z,95855.4
2019-02-18T11:35:06.989Z,95859.1
2019-02-18T11:36:09.410Z,95857
2019-02-18T11:38:17.504Z,95853.8
2019-02-18T11:39:20.134Z,95845.7
2019-02-18T11:40:23.556Z,95845.4
2019-02-18T11:42:31.571Z,95845.4
2019-02-18T11:43:33.715Z,95839.7
2019-02-18T11:44:35.867Z,95841.1
2019-02-18T11:45:38.368Z,95844.2
2019-02-18T11:46:40.796Z,95836.7
2019-02-18T11:47:42.947Z,95836.8
2019-02-18T11:48:45.123Z,95841.7
2019-02-18T11:49:47.576Z,95836.8
2019-02-18T11:50:49.726Z,95838.5
2019-02-18T11:51:52.465Z,95833.8
2019-02-18T11:52:54.501Z,95832.7
2019-02-18T11:53:57.119Z,95827.3
2019-02-18T11:54:59.554Z,95830.9
2019-02-18T11:56:02.036Z,95825.6
2019-02-18T11:57:03.667Z,95824.2
2019-02-18T11:58:06.098Z,95825.9
2019-02-18T11:59:08.525Z,95819.4
2019-02-18T12:00:10.682Z,95817.3
2019-02-18T12:01:12.846Z,95819.4
2019-02-18T12:02:15.018Z,95816.6
2019-02-18T12:03:18.099Z,95819.8
2019-02-18T12:04:21.043Z,95812.7
2019-02-18T12:05:23.526Z,95814.3
2019-02-18T12:06:25.695Z,95810.3
2019-02-18T12:07:28.148Z,95806.2
2019-02-18T12:08:30.583Z,95809.3
2019-02-18T12:09:32.758Z,95801.4
2019-02-18T12:10:35.185Z,95801.5
2019-02-18T12:11:39.895Z,95803.9
2019-02-18T12:12:41.791Z,95799.3
2019-02-18T12:13:44.544Z,95801.4
2019-02-18T12:14:47.373Z,95797.3
2019-02-18T12:15:50.413Z,95800.5
2019-02-18T12:16:52.583Z,95800.5
2019-02-18T12:17:54.503Z,95799.7
2019-02-18T12:18:56.945Z,95791.9
2019-02-18T12:19:59.377Z,95790.1
2019-02-18T12:21:01.524Z,95787.9
2019-02-18T12:22:03.951Z,95789.7
2019-02-18T12:23:05.845Z,95787.3
2019-02-18T12:24:08.292Z,95776.2
2019-02-18T12:25:11.349Z,95776.2
2019-02-18T12:26:14.405Z,95774.1
2019-02-18T12:27:16.843Z,95770
2019-02-18T12:28:18.758Z,95776.1
2019-02-18T12:30:26.211Z,95773.2
2019-02-18T12:31:28.379Z,95771.4
2019-02-18T12:32:30.255Z,95770.1
2019-02-18T12:33:32.139Z,95770.8
2019-02-18T12:34:34.299Z,95771.8
2019-02-18T12:35:37.221Z,95769.9
2019-02-18T12:36:40.019Z,95768.9
2019-02-18T12:37:42.627Z,95768.2
2019-02-18T12:38:45.046Z,95768
2019-02-18T12:39:47.206Z,95765.2
2019-02-18T12:40:49.355Z,95762.7
2019-02-18T12:41:51.511Z,95758.6
2019-02-18T12:42:53.665Z,95759.8
2019-02-18T12:43:55.819Z,95757.6
2019-02-18T12:44:57.965Z,95756.3
2019-02-18T12:46:00.397Z,95751.1
2019-02-18T12:47:03.458Z,95750.5
2019-02-18T12:48:05.854Z,95747.9
2019-02-18T12:49:08.567Z,95750.7
2019-02-18T12:50:10.755Z,95746
2019-02-18T12:51:13.236Z,95742.3
2019-02-18T12:52:15.444Z,95740.7
2019-02-18T12:53:17.396Z,95740.9
2019-02-18T12:54:19.931Z,95737.6
2019-02-18T12:55:23.070Z,95738.6
2019-02-18T12:56:25.558Z,95735
2019-02-18T12:57:28.539Z,95730.9